Time;durP1;ratioP1;P1;durP2;ratioP2;P2;SDS_P1;SDS_P2;PMS_P1;PMS_P2;Temp;Humidity;BMP_temperature;BMP_pressure;BME280_temperature;BME280_humidity;BME280_pressure;Samples;Min_cycle;Max_cycle;Signal;HPM_P1;HPM_P2
2022/04/02 00:00:41;;;;;;;3.22;2.15;;;1.80;99.90;;;;;;5014707;28;20037;-78
2022/04/02 00:03:07;;;;;;;5.68;2.70;;;1.80;99.90;;;;;;5014401;28;20532;-78
2022/04/02 00:05:32;;;;;;;3.75;2.40;;;1.80;99.90;;;;;;5014120;28;20068;-78
2022/04/02 00:07:58;;;;;;;4.82;2.33;;;1.70;99.90;;;;;;5014065;28;20489;-78
2022/04/02 00:10:23;;;;;;;4.75;2.40;;;1.70;99.90;;;;;;5014005;28;20478;-77
2022/04/02 00:12:50;;;;;;;4.93;2.47;;;1.70;99.90;;;;;;5013973;28;20065;-77
2022/04/02 00:15:15;;;;;;;3.38;2.17;;;1.70;99.90;;;;;;5013127;28;20038;-78
2022/04/02 00:17:41;;;;;;;5.82;2.63;;;1.70;99.90;;;;;;5013983;28;20084;-78
2022/04/02 00:20:07;;;;;;;4.93;2.13;;;1.70;99.90;;;;;;5013943;28;20042;-78
2022/04/02 00:22:32;;;;;;;4.30;2.45;;;1.70;99.90;;;;;;5013872;28;20042;-78
2022/04/02 00:24:58;;;;;;;3.88;2.35;;;1.60;99.90;;;;;;5013833;28;20194;-78
2022/04/02 00:27:23;;;;;;;3.65;2.42;;;1.60;99.90;;;;;;5013779;28;20053;-78
2022/04/02 00:29:49;;;;;;;5.13;2.50;;;1.60;99.90;;;;;;5012332;28;20050;-78
2022/04/02 00:32:15;;;;;;;4.88;2.95;;;1.70;99.90;;;;;;5013952;28;20080;-77
2022/04/02 00:34:40;;;;;;;5.43;2.42;;;1.50;99.90;;;;;;5013681;28;20049;-77
2022/04/02 00:37:06;;;;;;;5.40;2.30;;;1.60;99.90;;;;;;5013751;28;20124;-78
2022/04/02 00:39:32;;;;;;;6.68;2.70;;;1.60;99.90;;;;;;5013614;28;20057;-77
2022/04/02 00:41:57;;;;;;;2.83;2.00;;;1.60;99.90;;;;;;5013236;28;20049;-77
2022/04/02 00:44:26;;;;;;;6.05;2.30;;;1.60;99.90;;;;;;5013689;28;20104;-77
2022/04/02 00:46:52;;;;;;;4.95;2.40;;;1.50;99.90;;;;;;5015248;28;20056;-79
2022/04/02 00:49:17;;;;;;;3.70;2.10;;;1.50;99.90;;;;;;5017480;28;20136;-78
2022/04/02 00:51:44;;;;;;;5.90;2.67;;;1.50;99.90;;;;;;5017419;28;20481;-77
2022/04/02 00:54:11;;;;;;;3.95;2.25;;;1.50;99.90;;;;;;5017401;28;20474;-79
2022/04/02 00:56:38;;;;;;;4.13;2.60;;;1.50;99.90;;;;;;5016665;28;20041;-78
2022/04/02 00:59:05;;;;;;;4.10;2.38;;;1.40;99.90;;;;;;5017472;28;20041;-78
2022/04/02 01:01:34;;;;;;;4.50;2.53;;;1.40;99.90;;;;;;5017358;28;20050;-79
2022/04/02 01:04:01;;;;;;;4.90;2.42;;;1.40;99.90;;;;;;5017048;28;20327;-79
2022/04/02 01:06:28;;;;;;;4.10;2.33;;;1.40;99.90;;;;;;5017283;28;20042;-78
2022/04/02 01:08:54;;;;;;;8.32;2.78;;;1.40;99.90;;;;;;5017083;28;20049;-77
2022/04/02 01:11:19;;;;;;;7.25;2.40;;;1.40;99.90;;;;;;5017412;28;20410;-79
2022/04/02 01:13:45;;;;;;;5.18;2.30;;;1.40;99.90;;;;;;5017071;28;20046;-79
2022/04/02 01:16:11;;;;;;;3.55;2.28;;;1.40;99.90;;;;;;5016735;28;20042;-78
2022/04/02 01:18:37;;;;;;;5.47;2.20;;;1.40;99.90;;;;;;5017003;28;20049;-77
2022/04/02 01:21:03;;;;;;;5.88;2.05;;;1.40;99.90;;;;;;5017014;28;20470;-78
2022/04/02 01:23:29;;;;;;;5.38;2.17;;;1.40;99.90;;;;;;5016967;28;20128;-78
2022/04/02 01:25:59;;;;;;;4.60;2.53;;;1.40;99.90;;;;;;5016780;28;20053;-79
2022/04/02 01:28:33;;;;;;;5.13;2.15;;;1.30;99.90;;;;;;5017197;28;20057;-78
2022/04/02 01:31:03;;;;;;;4.68;2.25;;;1.40;99.90;;;;;;5016850;28;20097;-77
2022/04/02 01:33:29;;;;;;;6.57;2.55;;;1.30;99.90;;;;;;5016983;28;20180;-79
2022/04/02 01:36:03;;;;;;;3.45;2.03;;;1.30;99.90;;;;;;5016724;28;20120;-79
2022/04/02 01:38:29;;;;;;;4.18;2.40;;;1.30;99.90;;;;;;5016539;28;20489;-78
2022/04/02 01:40:56;;;;;;;3.40;2.17;;;1.30;99.90;;;;;;5016886;28;20158;-78
2022/04/02 01:43:22;;;;;;;7.07;3.65;;;1.30;99.90;;;;;;5016297;28;20046;-79
2022/04/02 01:45:53;;;;;;;5.65;2.60;;;1.30;99.90;;;;;;5016537;28;20052;-79
2022/04/02 01:48:18;;;;;;;4.45;2.38;;;1.30;99.90;;;;;;5016552;28;20050;-79
2022/04/02 01:50:44;;;;;;;4.43;2.47;;;1.50;99.90;;;;;;5016371;28;20042;-77
2022/04/02 01:53:10;;;;;;;4.35;2.50;;;1.30;99.90;;;;;;5015978;28;20474;-78
2022/04/02 01:55:35;;;;;;;5.25;2.75;;;1.30;99.90;;;;;;5016604;28;20108;-78
2022/04/02 01:58:01;;;;;;;4.25;2.38;;;1.30;99.90;;;;;;5015808;28;20041;-78
2022/04/02 02:00:26;;;;;;;9.02;2.90;;;1.30;99.90;;;;;;5016228;28;20085;-79
2022/04/02 02:02:52;;;;;;;4.78;2.45;;;1.10;99.90;;;;;;5016168;28;20092;-79
2022/04/02 02:05:17;;;;;;;6.28;2.10;;;1.30;99.90;;;;;;5016104;28;20406;-78
2022/04/02 02:07:49;;;;;;;3.72;1.98;;;1.30;99.90;;;;;;5016025;28;20050;-78
2022/04/02 02:10:15;;;;;;;3.58;2.10;;;1.20;99.90;;;;;;5015882;28;20045;-78
2022/04/02 02:12:41;;;;;;;3.63;2.30;;;1.20;99.90;;;;;;5015989;28;20073;-78
2022/04/02 02:15:08;;;;;;;6.00;2.40;;;1.20;99.90;;;;;;5016016;28;20050;-78
2022/04/02 02:17:34;;;;;;;5.57;2.28;;;1.20;99.90;;;;;;5015953;28;20049;-78
2022/04/02 02:19:59;;;;;;;5.13;2.72;;;1.20;99.90;;;;;;5016004;28;20497;-79
2022/04/02 02:22:25;;;;;;;4.35;2.25;;;1.10;99.90;;;;;;5015582;28;20398;-79
2022/04/02 02:24:51;;;;;;;3.65;2.28;;;1.10;99.90;;;;;;5016204;28;20524;-78
2022/04/02 02:27:16;;;;;;;3.67;2.17;;;1.10;99.90;;;;;;5015682;28;20056;-79
2022/04/02 02:29:42;;;;;;;3.83;2.35;;;1.10;99.90;;;;;;5015598;28;20066;-79
2022/04/02 02:32:08;;;;;;;4.22;2.38;;;1.10;99.90;;;;;;5015688;28;20054;-78
2022/04/02 02:37:17;;;;;;;5.25;2.28;;;1.00;99.90;;;;;;5015617;28;20050;-78
2022/04/02 02:39:43;;;;;;;5.40;2.30;;;1.00;99.90;;;;;;5015612;28;20129;-78
2022/04/02 02:42:09;;;;;;;5.10;2.63;;;1.00;99.90;;;;;;5014467;28;20042;-78
2022/04/02 02:44:34;;;;;;;3.40;2.15;;;1.00;99.90;;;;;;5015358;28;20049;-77
2022/04/02 02:47:00;;;;;;;3.45;2.33;;;0.90;99.90;;;;;;5015341;28;20367;-78
2022/04/02 02:49:25;;;;;;;4.28;2.50;;;0.70;99.90;;;;;;5013990;28;20391;-77
2022/04/02 02:51:52;;;;;;;3.38;2.10;;;0.90;99.90;;;;;;5015312;28;20045;-78
2022/04/02 02:54:18;;;;;;;4.47;2.65;;;0.90;99.90;;;;;;5014381;28;20046;-78
2022/04/02 02:56:43;;;;;;;2.95;2.22;;;0.80;99.90;;;;;;5015241;28;20371;-78
2022/04/02 02:59:09;;;;;;;6.10;2.40;;;0.90;99.90;;;;;;5014989;28;20449;-78
2022/04/02 03:01:34;;;;;;;4.18;2.45;;;0.80;99.90;;;;;;5015032;28;20468;-78
2022/04/02 03:04:00;;;;;;;4.70;2.33;;;0.80;99.90;;;;;;5030249;28;20057;-78
2022/04/02 03:06:26;;;;;;;5.70;2.55;;;0.90;99.90;;;;;;5014993;28;20038;-77
2022/04/02 03:08:51;;;;;;;4.22;2.40;;;0.70;99.90;;;;;;5014194;28;20045;-77
2022/04/02 03:11:17;;;;;;;4.70;2.38;;;0.80;99.90;;;;;;5015114;28;20046;-78
2022/04/02 03:13:42;;;;;;;3.30;2.47;;;0.70;99.90;;;;;;5015035;28;20048;-78
2022/04/02 03:16:08;;;;;;;5.32;2.55;;;0.70;99.90;;;;;;5014963;28;20050;-78
2022/04/02 03:18:34;;;;;;;4.82;2.10;;;0.80;99.90;;;;;;5014711;28;20042;-77
2022/04/02 03:21:00;;;;;;;4.53;2.40;;;0.70;99.90;;;;;;5015295;28;20096;-77
2022/04/02 03:23:25;;;;;;;5.15;2.60;;;0.50;99.90;;;;;;5014742;28;20042;-78
2022/04/02 03:25:51;;;;;;;4.05;2.22;;;0.70;99.90;;;;;;5014909;28;20038;-79
2022/04/02 03:28:17;;;;;;;7.07;2.60;;;0.70;99.90;;;;;;5014685;28;20052;-79
2022/04/02 03:30:42;;;;;;;4.72;2.10;;;0.70;99.90;;;;;;5014836;28;20489;-78
2022/04/02 03:33:09;;;;;;;3.72;2.25;;;0.70;99.90;;;;;;5013515;28;20549;-79
2022/04/02 03:35:34;;;;;;;3.55;2.22;;;0.70;99.90;;;;;;5014217;28;20504;-78
2022/04/02 03:38:00;;;;;;;6.10;2.50;;;0.70;99.90;;;;;;5015028;28;20038;-78
2022/04/02 03:40:26;;;;;;;4.22;2.47;;;0.70;99.90;;;;;;5014397;28;20097;-79
2022/04/02 03:42:53;;;;;;;3.43;2.27;;;0.90;99.90;;;;;;5014765;28;20049;-78
2022/04/02 03:45:20;;;;;;;4.17;2.70;;;0.70;99.90;;;;;;5014208;28;20053;-79
2022/04/02 03:47:46;;;;;;;6.03;2.53;;;0.90;99.90;;;;;;5014259;28;20052;-78
2022/04/02 03:50:12;;;;;;;5.07;2.43;;;0.70;99.90;;;;;;5014395;28;20409;-79
2022/04/02 03:52:38;;;;;;;3.90;2.40;;;0.70;99.90;;;;;;5014219;28;20516;-78
2022/04/02 03:55:05;;;;;;;6.00;2.22;;;0.80;99.90;;;;;;5014248;28;20085;-79
2022/04/02 03:57:31;;;;;;;4.40;2.25;;;0.60;99.90;;;;;;5013275;28;20484;-78
2022/04/02 03:59:57;;;;;;;3.42;2.25;;;0.60;99.90;;;;;;5013981;28;20066;-78
2022/04/02 04:02:23;;;;;;;4.55;2.35;;;0.60;99.90;;;;;;5014307;28;20054;-79
2022/04/02 04:04:49;;;;;;;3.72;2.30;;;0.30;99.90;;;;;;5014042;28;20137;-78
2022/04/02 04:07:15;;;;;;;4.75;2.63;;;0.60;99.90;;;;;;5014039;28;20480;-79
2022/04/02 04:09:40;;;;;;;5.22;2.85;;;0.60;99.90;;;;;;5014272;28;20116;-80
2022/04/02 04:12:07;;;;;;;5.45;2.83;;;0.50;99.90;;;;;;5013853;28;20482;-79
2022/04/02 04:14:33;;;;;;;5.00;2.63;;;0.50;99.90;;;;;;5013689;28;20610;-79
2022/04/02 04:16:59;;;;;;;4.15;2.60;;;0.50;99.90;;;;;;5012761;28;20121;-79
2022/04/02 04:19:24;;;;;;;6.18;2.38;;;0.50;99.90;;;;;;5013905;28;20397;-78
2022/04/02 04:21:50;;;;;;;4.13;2.40;;;0.50;99.90;;;;;;5017494;28;20128;-78
2022/04/02 04:24:16;;;;;;;4.35;2.80;;;0.50;99.90;;;;;;5018169;28;20103;-78
2022/04/02 04:26:43;;;;;;;5.18;3.08;;;0.50;99.90;;;;;;5017942;28;20045;-79
2022/04/02 04:29:09;;;;;;;3.78;2.30;;;0.40;99.90;;;;;;5017953;28;20056;-79
2022/04/02 04:31:34;;;;;;;6.90;3.03;;;0.70;99.90;;;;;;5017981;28;20149;-77
2022/04/02 04:34:00;;;;;;;6.20;2.55;;;0.40;99.90;;;;;;5017826;28;20046;-78
2022/04/02 04:36:27;;;;;;;6.35;3.17;;;0.40;99.90;;;;;;5017750;28;20045;-79
2022/04/02 04:38:52;;;;;;;4.15;2.65;;;0.40;99.90;;;;;;5016613;28;20085;-78
2022/04/02 04:41:18;;;;;;;5.60;2.60;;;0.50;99.90;;;;;;5016925;28;20450;-78
2022/04/02 04:43:48;;;;;;;5.57;2.80;;;0.50;99.90;;;;;;5017648;28;20132;-77
2022/04/02 04:46:14;;;;;;;4.25;2.38;;;0.50;99.90;;;;;;5016690;28;20060;-79
2022/04/02 04:48:40;;;;;;;6.00;3.10;;;1.00;99.90;;;;;;5017534;28;20045;-79
2022/04/02 04:51:07;;;;;;;4.82;2.65;;;0.50;99.90;;;;;;5033416;28;20441;-79
2022/04/02 04:53:32;;;;;;;6.30;2.83;;;0.50;99.90;;;;;;5017467;28;20160;-79
2022/04/02 04:55:59;;;;;;;5.18;2.85;;;0.60;99.90;;;;;;5017617;28;20120;-79
2022/04/02 04:58:25;;;;;;;5.72;2.70;;;0.50;99.90;;;;;;5017652;28;20116;-79
2022/04/02 05:00:51;;;;;;;4.00;2.58;;;0.50;99.90;;;;;;5016495;28;20041;-80
2022/04/02 05:03:17;;;;;;;;;;;0.60;99.90;;;;;;5017623;28;20053;-80
2022/04/02 05:05:43;;;;;;;6.85;2.80;;;0.50;99.90;;;;;;5016359;28;19932;-79
2022/04/02 05:08:08;;;;;;;7.35;2.70;;;0.60;99.90;;;;;;5017170;28;20068;-76
2022/04/02 05:10:34;;;;;;;4.63;2.80;;;0.60;99.90;;;;;;5017472;28;20053;-80
2022/04/02 05:13:03;;;;;;;6.03;2.60;;;0.60;99.90;;;;;;5017183;28;20045;-79
2022/04/02 05:15:29;;;;;;;7.38;3.10;;;0.50;99.90;;;;;;5016107;28;20441;-78
2022/04/02 05:17:56;;;;;;;6.63;2.70;;;0.50;99.90;;;;;;5016894;28;20077;-77
2022/04/02 05:20:21;;;;;;;6.38;2.40;;;0.60;99.90;;;;;;5017066;28;20120;-76
2022/04/02 05:22:47;;;;;;;5.57;2.50;;;0.60;99.90;;;;;;5017072;28;20081;-80
2022/04/02 05:25:14;;;;;;;4.95;3.05;;;0.60;99.90;;;;;;5032262;28;20401;-80
2022/04/02 05:27:40;;;;;;;;;;;0.60;99.90;;;;;;5017672;28;20137;-79
2022/04/02 05:30:06;;;;;;;6.82;3.03;;;0.60;99.90;;;;;;5017295;28;19991;-80
2022/04/02 05:32:31;;;;;;;7.43;3.13;;;0.60;99.90;;;;;;5015552;28;20100;-79
2022/04/02 05:34:58;;;;;;;8.23;3.60;;;0.30;99.90;;;;;;5016425;28;20092;-79
2022/04/02 05:37:23;;;;;;;5.20;3.00;;;0.60;99.90;;;;;;5015940;28;20409;-79
2022/04/02 05:39:49;;;;;;;5.55;2.83;;;0.70;99.90;;;;;;5016838;28;20121;-80
2022/04/02 05:42:15;;;;;;;3.45;2.30;;;0.30;99.90;;;;;;5016618;28;20053;-79
2022/04/02 05:44:41;;;;;;;8.20;3.17;;;0.60;99.90;;;;;;5016620;28;20486;-79
2022/04/02 05:47:06;;;;;;;4.57;3.20;;;0.80;99.90;;;;;;5015245;28;20081;-79
2022/04/02 05:49:32;;;;;;;5.97;3.20;;;0.70;99.90;;;;;;5016541;28;20072;-78
2022/04/02 05:51:59;;;;;;;10.18;2.92;;;0.70;99.90;;;;;;5016538;28;20533;-78
2022/04/02 05:54:25;;;;;;;7.45;3.38;;;0.80;99.90;;;;;;5016350;28;20077;-81
2022/04/02 05:56:54;;;;;;;4.32;2.65;;;0.70;99.90;;;;;;5015376;28;20473;-80
2022/04/02 05:59:21;;;;;;;5.45;2.85;;;0.70;99.90;;;;;;5014969;28;20042;-79
2022/04/02 06:01:47;;;;;;;6.83;3.27;;;0.80;99.90;;;;;;5016145;28;20052;-78
2022/04/02 06:04:13;;;;;;;6.22;3.22;;;0.80;99.90;;;;;;5016132;28;20132;-77
2022/04/02 06:06:38;;;;;;;7.28;2.72;;;0.80;99.90;;;;;;5016569;28;20541;-77
2022/04/02 06:09:04;;;;;;;5.13;2.63;;;1.00;99.90;;;;;;5016171;28;20085;-78
2022/04/02 06:11:30;;;;;;;4.05;2.80;;;0.90;99.90;;;;;;5022981;28;20060;-78
2022/04/02 06:13:57;;;;;;;4.60;2.83;;;0.80;99.90;;;;;;5037084;28;20050;-81
2022/04/02 06:16:23;;;;;;;7.57;3.40;;;0.90;99.90;;;;;;5029424;28;20528;-78
2022/04/02 06:18:52;;;;;;;7.80;2.80;;;0.90;99.90;;;;;;5043638;28;20120;-78
2022/04/02 06:21:18;;;;;;;6.82;3.40;;;0.90;99.90;;;;;;5038272;28;20140;-79
2022/04/02 06:23:44;;;;;;;4.93;3.23;;;1.10;99.90;;;;;;5037718;28;20455;-78
2022/04/02 06:26:10;;;;;;;6.60;3.23;;;1.00;99.90;;;;;;5055377;28;20339;-78
2022/04/02 06:28:40;;;;;;;3.90;2.80;;;1.10;99.90;;;;;;5055457;28;20049;-78
2022/04/02 06:31:06;;;;;;;7.63;3.47;;;1.10;99.90;;;;;;5037304;28;20131;-77
2022/04/02 06:33:33;;;;;;;5.13;3.45;;;1.20;99.90;;;;;;5055312;28;20053;-76
2022/04/02 06:36:00;;;;;;;8.80;2.97;;;1.20;99.90;;;;;;5055209;28;20045;-75
2022/04/02 06:38:26;;;;;;;5.78;3.22;;;1.20;99.90;;;;;;5055158;28;20041;-77
2022/04/02 06:40:53;;;;;;;7.03;3.63;;;1.30;99.90;;;;;;5055002;28;20059;-76
2022/04/02 06:43:19;;;;;;;9.77;3.03;;;1.30;99.90;;;;;;5055012;28;20120;-77
2022/04/02 06:45:45;;;;;;;5.75;2.92;;;1.30;99.90;;;;;;5054898;28;20049;-77
2022/04/02 06:48:11;;;;;;;4.50;2.83;;;1.30;99.90;;;;;;5054717;28;20489;-76
2022/04/02 06:50:37;;;;;;;9.88;3.28;;;1.40;99.90;;;;;;5054936;28;20045;-79
2022/04/02 06:53:02;;;;;;;4.75;2.97;;;1.40;99.90;;;;;;5054941;28;20071;-77
2022/04/02 06:55:28;;;;;;;8.60;3.22;;;1.50;99.90;;;;;;5055065;28;20076;-75
2022/04/02 06:57:56;;;;;;;4.78;2.58;;;0.80;99.90;;;;;;5054835;28;20071;-75
2022/04/02 07:00:22;;;;;;;6.57;2.97;;;1.60;99.90;;;;;;5054671;28;20056;-76
2022/04/02 07:02:48;;;;;;;6.65;3.22;;;1.60;99.90;;;;;;5054650;28;20056;-77
2022/04/02 07:05:15;;;;;;;5.97;3.63;;;1.70;99.90;;;;;;5054660;28;20044;-77
2022/04/02 07:07:41;;;;;;;7.55;3.10;;;1.80;99.90;;;;;;5054537;28;20092;-77
2022/04/02 07:10:08;;;;;;;9.30;3.57;;;1.80;99.90;;;;;;5054803;28;20080;-77
2022/04/02 07:12:35;;;;;;;6.40;3.58;;;1.90;99.90;;;;;;5054580;28;20045;-82
2022/04/02 07:15:01;;;;;;;9.00;3.22;;;1.90;99.90;;;;;;5036841;28;20049;-77
2022/04/02 07:17:27;;;;;;;6.00;3.13;;;2.00;99.90;;;;;;5054078;28;20130;-78
2022/04/02 07:19:57;;;;;;;7.27;3.30;;;2.10;99.90;;;;;;5054511;28;20135;-78
2022/04/02 07:22:24;;;;;;;5.65;3.35;;;2.10;99.90;;;;;;5036174;28;20040;-76
2022/04/02 07:24:51;;;;;;;9.27;3.35;;;2.20;99.90;;;;;;5054558;28;20053;-78
2022/04/02 07:27:21;;;;;;;6.18;3.22;;;2.30;99.90;;;;;;5035333;28;20046;-77
2022/04/02 07:29:51;;;;;;;8.23;3.42;;;2.40;99.90;;;;;;5014713;28;20060;-79
2022/04/02 07:32:17;;;;;;;4.97;3.08;;;2.40;99.90;;;;;;5012919;28;20042;-79
2022/04/02 07:34:42;;;;;;;7.18;3.08;;;2.50;99.90;;;;;;5011351;28;20053;-78
2022/04/02 07:37:12;;;;;;;6.38;3.05;;;2.60;99.90;;;;;;5014618;28;20493;-79
2022/04/02 07:39:53;;;;;;;4.68;2.83;;;2.70;99.90;;;;;;5013389;28;20470;-77
2022/04/02 07:42:23;;;;;;;5.97;3.28;;;2.80;99.90;;;;;;5013249;28;20474;-77
2022/04/02 07:45:08;;;;;;;6.60;3.30;;;2.90;99.90;;;;;;5014698;28;20053;-77
2022/04/02 07:47:38;;;;;;;4.95;3.03;;;3.50;99.90;;;;;;5014495;28;20081;-78
2022/04/02 07:50:09;;;;;;;6.07;2.90;;;3.10;99.90;;;;;;5014305;28;20066;-79
2022/04/02 07:52:39;;;;;;;6.00;2.97;;;3.10;99.90;;;;;;5012704;28;20486;-79
2022/04/02 07:55:07;;;;;;;4.80;2.80;;;3.20;99.90;;;;;;5014014;28;20525;-77
2022/04/02 07:57:40;;;;;;;12.75;3.30;;;3.30;99.90;;;;;;5014127;28;20046;-76
2022/04/02 08:00:10;;;;;;;4.45;2.85;;;3.50;99.90;;;;;;5013170;28;20042;-78
2022/04/02 08:02:37;;;;;;;7.13;3.45;;;3.70;99.90;;;;;;5014076;28;20096;-77
2022/04/02 08:05:08;;;;;;;6.75;3.08;;;3.80;99.90;;;;;;5013962;28;20516;-79
2022/04/02 08:07:43;;;;;;;6.78;2.72;;;3.90;99.90;;;;;;5013994;28;20136;-78
2022/04/02 08:10:11;;;;;;;8.40;3.00;;;4.00;99.90;;;;;;5014089;28;20092;-76
2022/04/02 08:12:39;;;;;;;5.68;2.95;;;4.10;99.90;;;;;;5014235;28;20045;-77
2022/04/02 08:15:07;;;;;;;7.00;2.58;;;4.20;99.90;;;;;;5014181;28;20045;-79
2022/04/02 08:17:34;;;;;;;5.30;2.92;;;4.30;99.90;;;;;;5013943;28;20041;-79
2022/04/02 08:20:01;;;;;;;6.37;3.00;;;4.40;99.90;;;;;;5014040;28;20053;-78
2022/04/02 08:22:27;;;;;;;7.35;2.55;;;4.50;99.90;;;;;;5013904;28;20046;-80
2022/04/02 08:24:55;;;;;;;6.72;2.63;;;4.60;99.90;;;;;;5013840;28;20092;-78
2022/04/02 08:27:39;;;;;;;5.95;3.17;;;4.70;99.90;;;;;;5013598;28;20500;-80
2022/04/02 08:30:17;;;;;;;5.07;2.70;;;4.80;99.90;;;;;;5013673;28;20058;-78
2022/04/02 08:33:04;;;;;;;3.15;1.90;;;5.00;99.90;;;;;;5013904;28;20068;-80
2022/04/02 08:35:41;;;;;;;5.03;2.50;;;5.00;99.90;;;;;;5013736;28;20046;-79
2022/04/02 08:38:20;;;;;;;4.95;2.70;;;5.00;99.90;;;;;;5013828;28;20057;-81
2022/04/02 08:41:27;;;;;;;5.28;2.50;;;5.10;99.90;;;;;;5013719;28;20050;-77
2022/04/02 08:44:27;;;;;;;5.53;2.47;;;5.10;99.90;;;;;;5013552;28;20096;-78
2022/04/02 08:47:15;;;;;;;4.55;2.40;;;5.10;99.90;;;;;;5013512;28;20046;-78
2022/04/02 08:50:11;;;;;;;3.88;2.10;;;5.20;99.90;;;;;;5013912;28;20050;-81
2022/04/02 08:52:49;;;;;;;3.72;2.00;;;5.20;99.90;;;;;;5007509;28;20065;-80
2022/04/02 08:55:16;;;;;;;;;;;5.40;99.90;;;;;;5014087;28;20049;-82
2022/04/02 08:57:50;;;;;;;5.28;2.10;;;5.50;99.90;;;;;;5012789;28;19921;-81
2022/04/02 09:00:23;;;;;;;6.18;1.75;;;5.60;99.90;;;;;;5013945;28;20053;-80
2022/04/02 09:03:18;;;;;;;2.55;1.70;;;5.60;99.90;;;;;;5012818;28;20082;-79
2022/04/02 09:06:21;;;;;;;3.00;1.90;;;5.60;99.90;;;;;;4960047;28;20537;-80
2022/04/02 09:09:03;;;;;;;4.40;1.73;;;5.70;99.90;;;;;;5016603;28;20050;-78
2022/04/02 09:11:41;;;;;;;3.85;1.98;;;5.30;99.90;;;;;;5017603;28;20046;-81
2022/04/02 09:14:45;;;;;;;2.80;1.77;;;5.70;99.90;;;;;;5016912;28;20548;-79
2022/04/02 09:17:33;;;;;;;5.03;2.08;;;5.80;99.90;;;;;;4986739;28;20563;-81
2022/04/02 09:20:34;;;;;;;3.45;2.03;;;5.90;99.90;;;;;;5017127;28;20049;-80
2022/04/02 09:23:11;;;;;;;3.92;1.80;;;6.10;99.90;;;;;;5017040;28;20132;-80
2022/04/02 09:26:08;;;;;;;3.17;2.08;;;6.20;99.90;;;;;;5016965;28;20045;-79
2022/04/02 09:29:05;;;;;;;4.35;2.00;;;6.10;99.90;;;;;;5017069;28;20050;-79
2022/04/02 09:32:05;;;;;;;5.43;2.00;;;6.20;99.90;;;;;;5016820;28;20563;-77
2022/04/02 09:34:48;;;;;;;4.03;1.98;;;6.10;99.90;;;;;;5016982;28;20045;-77
2022/04/02 09:37:48;;;;;;;2.97;1.83;;;6.20;99.90;;;;;;5016740;28;20493;-80
2022/04/02 09:40:18;;;;;;;2.63;1.70;;;6.00;99.60;;;;;;5017044;28;20433;-79
2022/04/02 09:42:51;;;;;;;2.78;1.83;;;5.80;99.90;;;;;;5016638;28;20058;-80
2022/04/02 09:45:21;;;;;;;3.05;1.85;;;5.90;99.90;;;;;;5016581;28;20128;-80
2022/04/02 09:48:16;;;;;;;5.57;1.77;;;5.90;99.90;;;;;;5016839;28;20560;-79
2022/04/02 09:50:44;;;;;;;4.05;1.98;;;6.00;99.90;;;;;;5003614;28;20058;-81
2022/04/02 09:53:15;;;;;;;3.28;2.15;;;6.10;99.90;;;;;;5016639;28;20096;-79
2022/04/02 09:56:17;;;;;;;4.80;2.20;;;6.20;99.90;;;;;;5016446;28;20050;-79
2022/04/02 09:58:52;;;;;;;2.25;1.70;;;6.30;99.90;;;;;;5016421;28;20057;-77
2022/04/02 10:01:30;;;;;;;3.75;1.95;;;6.30;99.90;;;;;;5016341;28;20065;-78
2022/04/02 10:04:04;;;;;;;3.08;1.63;;;6.20;99.90;;;;;;5016340;28;20046;-81
2022/04/02 10:06:39;;;;;;;7.00;1.88;;;6.00;97.60;;;;;;5016276;28;20046;-79
2022/04/02 10:09:08;;;;;;;6.32;2.15;;;5.80;99.90;;;;;;5016305;28;20046;-79
2022/04/02 10:11:38;;;;;;;4.18;1.70;;;5.60;99.90;;;;;;5016089;28;20129;-80
2022/04/02 10:14:04;;;;;;;4.53;1.80;;;5.50;99.90;;;;;;5016148;28;20145;-80
2022/04/02 10:16:31;;;;;;;3.08;1.60;;;5.40;99.90;;;;;;5016042;28;20034;-78
2022/04/02 10:18:58;;;;;;;;;;;5.20;99.90;;;;;;5016035;28;20104;-80
2022/04/02 10:21:24;;;;;;;3.75;1.52;;;5.10;99.90;;;;;;5015993;28;19921;-79
2022/04/02 10:24:11;;;;;;;3.87;1.60;;;5.00;99.90;;;;;;5015853;28;20095;-79
2022/04/02 10:26:39;;;;;;;3.22;1.48;;;5.00;99.90;;;;;;5015744;28;20038;-79
2022/04/02 10:29:13;;;;;;;5.18;2.00;;;5.10;99.90;;;;;;5015759;28;20050;-77
2022/04/02 10:31:49;;;;;;;3.40;1.55;;;4.80;99.90;;;;;;5016447;28;20054;-80
2022/04/02 10:34:42;;;;;;;3.03;1.40;;;5.10;99.90;;;;;;5016089;28;20058;-78
2022/04/02 10:37:18;;;;;;;4.10;1.50;;;5.10;99.90;;;;;;5014545;28;20054;-77
2022/04/02 10:40:00;;;;;;;3.08;1.65;;;5.20;99.90;;;;;;5014494;28;20375;-77
2022/04/02 10:42:42;;;;;;;2.25;1.50;;;5.20;99.90;;;;;;5015401;28;20046;-79
2022/04/02 10:45:11;;;;;;;3.33;1.83;;;4.90;99.90;;;;;;5015470;28;20056;-81
2022/04/02 10:47:46;;;;;;;3.45;1.73;;;5.50;99.90;;;;;;5014085;28;20414;-78
2022/04/02 10:50:16;;;;;;;2.80;1.60;;;5.70;99.90;;;;;;5015512;28;20115;-77
2022/04/02 10:52:43;;;;;;;2.55;1.58;;;6.00;99.90;;;;;;5015270;28;20050;-80
2022/04/02 10:55:11;;;;;;;3.50;1.65;;;6.20;99.90;;;;;;5015227;28;20050;-80
2022/04/02 10:57:37;;;;;;;2.42;1.70;;;6.50;99.90;;;;;;5015046;28;20520;-79
2022/04/02 11:00:09;;;;;;;3.90;1.70;;;6.70;99.90;;;;;;5015207;28;20081;-78
2022/04/02 11:02:41;;;;;;;4.75;1.58;;;6.70;99.90;;;;;;5015437;28;20038;-80
2022/04/02 11:05:13;;;;;;;2.10;1.50;;;6.60;99.90;;;;;;5015195;28;20057;-80
2022/04/02 11:07:42;;;;;;;4.20;1.73;;;6.50;99.90;;;;;;5015491;28;20072;-80
2022/04/02 11:10:11;;;;;;;2.47;1.40;;;6.40;99.90;;;;;;5015045;28;20088;-78
2022/04/02 11:12:41;;;;;;;2.38;1.67;;;6.20;99.90;;;;;;5014944;28;20049;-78
2022/04/02 11:15:12;;;;;;;3.65;1.70;;;6.10;99.90;;;;;;5014881;28;20049;-78
2022/04/02 11:17:41;;;;;;;2.55;1.48;;;6.10;99.90;;;;;;5015351;28;20045;-78
2022/04/02 11:20:16;;;;;;;2.65;1.58;;;6.20;99.90;;;;;;5014788;28;20057;-77
2022/04/02 11:22:51;;;;;;;2.55;1.55;;;6.20;99.40;;;;;;5014910;28;20536;-78
2022/04/02 11:25:29;;;;;;;4.85;1.50;;;6.40;99.90;;;;;;5014934;28;20086;-79
2022/04/02 11:27:58;;;;;;;;;;;6.50;99.60;;;;;;5015208;28;20088;-81
2022/04/02 11:30:33;;;;;;;2.58;1.30;;;6.70;99.70;;;;;;5014116;28;19922;-80
2022/04/02 11:33:17;;;;;;;2.65;1.63;;;7.00;97.70;;;;;;5014035;28;20042;-80
2022/04/02 11:35:47;;;;;;;4.40;1.65;;;7.10;97.80;;;;;;5014719;28;20050;-81
2022/04/02 11:38:30;;;;;;;3.22;1.60;;;7.20;96.40;;;;;;5013440;28;20058;-79
2022/04/02 11:41:14;;;;;;;2.97;1.42;;;6.90;96.40;;;;;;5014418;28;20045;-81
2022/04/02 11:43:44;;;;;;;1.95;1.20;;;6.90;97.00;;;;;;5014306;28;20580;-80
2022/04/02 11:46:13;;;;;;;3.63;1.38;;;6.70;96.30;;;;;;5014177;28;20042;-81
2022/04/02 11:48:56;;;;;;;2.70;1.40;;;6.60;96.80;;;;;;5014259;28;20050;-80
2022/04/02 11:51:22;;;;;;;3.05;1.65;;;6.60;96.20;;;;;;5014080;28;20050;-80
2022/04/02 11:53:49;;;;;;;3.08;1.73;;;6.80;98.60;;;;;;5014425;28;20041;-79
2022/04/02 11:56:26;;;;;;;3.92;1.30;;;7.00;97.60;;;;;;5014454;28;20482;-82
2022/04/02 11:58:53;;;;;;;;;;;7.20;96.00;;;;;;5014671;28;20066;-82
2022/04/02 12:01:22;;;;;;;3.72;1.58;;;7.20;97.70;;;;;;5014205;28;19928;-80
2022/04/02 12:04:13;;;;;;;4.65;1.30;;;7.20;97.80;;;;;;5014910;28;20099;-79
2022/04/02 12:06:47;;;;;;;2.53;1.35;;;7.10;97.70;;;;;;5007175;28;20058;-81
2022/04/02 12:09:21;;;;;;;5.63;1.65;;;7.00;97.20;;;;;;5014316;28;20073;-79
2022/04/02 12:11:59;;;;;;;2.47;1.42;;;6.70;96.60;;;;;;5014014;28;20375;-79
2022/04/02 12:14:34;;;;;;;2.78;1.40;;;6.60;97.70;;;;;;5013880;28;20074;-80
2022/04/02 12:17:10;;;;;;;4.63;1.40;;;6.50;99.90;;;;;;5013946;28;20046;-78
2022/04/02 12:19:50;;;;;;;1.50;1.20;;;6.40;99.90;;;;;;5014148;28;20041;-79
2022/04/02 12:22:21;;;;;;;3.90;1.67;;;6.20;99.90;;;;;;5013890;28;20046;-80
2022/04/02 12:24:53;;;;;;;2.78;1.58;;;6.20;99.90;;;;;;5013753;28;20050;-80
2022/04/02 12:27:20;;;;;;;4.03;1.63;;;6.10;99.90;;;;;;5012827;28;20445;-80
2022/04/02 12:29:51;;;;;;;3.65;1.55;;;6.00;99.90;;;;;;5013511;28;20168;-78
2022/04/02 12:32:37;;;;;;;3.53;1.65;;;5.70;99.90;;;;;;5013928;28;20053;-79
2022/04/02 12:35:06;;;;;;;3.53;1.70;;;5.60;99.90;;;;;;5013464;28;20161;-80
2022/04/02 12:37:43;;;;;;;2.17;1.48;;;5.50;99.90;;;;;;5012802;28;20077;-80
2022/04/02 12:40:26;;;;;;;2.97;1.50;;;5.50;99.90;;;;;;5013797;28;20091;-81
2022/04/02 12:43:03;;;;;;;2.30;1.40;;;5.50;99.90;;;;;;5017048;28;20050;-81
2022/04/02 12:45:30;;;;;;;3.17;1.83;;;5.60;99.90;;;;;;5017583;28;20053;-80
2022/04/02 12:48:04;;;;;;;4.63;1.70;;;5.70;99.90;;;;;;5017593;28;20072;-78
2022/04/02 12:50:37;;;;;;;3.80;1.60;;;5.80;99.90;;;;;;5017559;28;20042;-80
2022/04/02 12:53:03;;;;;;;3.30;1.52;;;5.80;99.90;;;;;;5017721;28;20053;-80
2022/04/02 12:55:31;;;;;;;3.53;1.50;;;6.40;99.90;;;;;;5016800;28;20081;-82
2022/04/02 12:58:02;;;;;;;3.13;1.50;;;6.10;99.90;;;;;;5017523;28;20073;-79
2022/04/02 13:00:42;;;;;;;2.33;1.45;;;6.20;99.90;;;;;;5017490;28;20081;-80
2022/04/02 13:03:08;;;;;;;4.07;1.02;;;6.40;99.90;;;;;;5017637;28;20080;-80
2022/04/02 13:06:02;;;;;;;4.90;1.38;;;6.30;99.90;;;;;;5017284;28;20491;-78
2022/04/02 13:08:29;;;;;;;2.65;1.33;;;6.30;99.90;;;;;;5016121;28;20560;-78
2022/04/02 13:11:00;;;;;;;5.97;1.40;;;6.20;99.00;;;;;;5017242;28;20046;-77
2022/04/02 13:13:38;;;;;;;5.13;1.40;;;6.00;99.10;;;;;;5017199;28;20132;-80
2022/04/02 13:16:05;;;;;;;4.53;1.77;;;6.00;99.80;;;;;;5017264;28;20039;-80